createdAt,value
2023-05-10T00:00:30.593Z,13.3
2023-05-10T00:10:30.761Z,13.3
2023-05-10T00:20:31.013Z,13.2
2023-05-10T00:30:31.857Z,13.2
2023-05-10T00:40:32.322Z,13.2
2023-05-10T00:50:32.865Z,13.3
2023-05-10T01:00:33.512Z,13.2
2023-05-10T01:10:33.846Z,13.2
2023-05-10T01:20:34.614Z,13
2023-05-10T01:30:35.156Z,12.7
2023-05-10T01:40:35.810Z,12.5
2023-05-10T01:50:36.124Z,12.4
2023-05-10T02:00:37.139Z,12.4
2023-05-10T02:10:38.021Z,12.3
2023-05-10T02:20:38.106Z,12.2
2023-05-10T02:30:38.248Z,12.2
2023-05-10T02:40:39.363Z,12.1
2023-05-10T02:50:39.777Z,12.1
2023-05-10T03:00:40.046Z,12.2
2023-05-10T03:10:40.480Z,12.2
2023-05-10T03:20:41.415Z,12.2
2023-05-10T03:30:42.081Z,12.3
2023-05-10T03:40:42.561Z,12.4
2023-05-10T03:50:43.390Z,12.4
2023-05-10T04:00:44.128Z,12.4
2023-05-10T04:10:44.372Z,12.4
2023-05-10T04:20:45.464Z,12.5
2023-05-10T04:30:45.696Z,12.5
2023-05-10T04:40:46.262Z,12.6
2023-05-10T04:50:46.764Z,12.6
2023-05-10T05:00:46.849Z,12.7
2023-05-10T05:10:47.143Z,12.7
2023-05-10T05:20:47.393Z,12.8
2023-05-10T05:30:48.371Z,12.9
2023-05-10T05:40:49.076Z,12.9
2023-05-10T05:50:49.636Z,12.9
2023-05-10T06:00:50.783Z,12.9
2023-05-10T06:10:51.041Z,13
2023-05-10T06:20:51.682Z,13.1
2023-05-10T06:30:51.764Z,13.2
2023-05-10T06:40:52.071Z,13.4
2023-05-10T06:50:52.455Z,13.4
2023-05-10T07:00:53.458Z,13.6
2023-05-10T07:10:53.877Z,14
2023-05-10T07:20:54.821Z,14
2023-05-10T07:30:55.577Z,14.4
2023-05-10T07:40:56.338Z,14.7
2023-05-10T07:50:56.610Z,14.9
2023-05-10T08:00:57.626Z,14.8
2023-05-10T08:10:58.403Z,14.7
2023-05-10T08:20:59.007Z,14.9
2023-05-10T08:30:59.744Z,15.1
2023-05-10T08:51:01.025Z,15.6
2023-05-10T09:01:01.902Z,15.5
2023-05-10T09:11:01.988Z,15.4
2023-05-10T09:21:02.489Z,15.3
2023-05-10T09:31:03.267Z,15.6
2023-05-10T09:51:04.860Z,16
2023-05-10T10:01:05.461Z,16.5
2023-05-10T10:11:06.234Z,16.3
2023-05-10T10:21:06.578Z,16
2023-05-10T10:31:07.177Z,16
2023-05-10T10:41:07.964Z,16.2
2023-05-10T10:51:09.611Z,16.2
2023-05-10T11:01:08.982Z,16.2
2023-05-10T11:21:10.007Z,16.2
2023-05-10T11:41:11.244Z,16.8
2023-05-10T11:51:12.295Z,16.6
2023-05-10T12:01:13.283Z,16.2
2023-05-10T12:11:13.418Z,16.3
2023-05-10T12:21:13.789Z,16.4
2023-05-10T12:31:14.804Z,16.5
2023-05-10T12:51:15.764Z,16.7
2023-05-10T13:01:16.656Z,17.5
2023-05-10T13:11:16.822Z,17.2
2023-05-10T13:21:17.507Z,17.9
2023-05-10T13:31:17.916Z,17.6
2023-05-10T13:41:18.517Z,18.1
2023-05-10T13:51:19.487Z,18
2023-05-10T14:01:19.965Z,17.8
2023-05-10T14:21:21.365Z,17.2
2023-05-10T14:31:22.103Z,17.8
2023-05-10T14:41:22.469Z,18
2023-05-10T14:51:23.434Z,18.7
2023-05-10T15:01:23.645Z,18.6
2023-05-10T15:11:24.095Z,18
2023-05-10T15:21:24.743Z,17.3
2023-05-10T15:31:25.001Z,17.2
2023-05-10T15:51:26.077Z,17.8
2023-05-10T16:01:26.893Z,18
2023-05-10T16:11:27.300Z,18.2
2023-05-10T16:21:27.509Z,17.8
2023-05-10T16:31:28.600Z,17.7
2023-05-10T16:41:28.770Z,17.4
2023-05-10T16:51:29.659Z,17.3
2023-05-10T17:11:35.628Z,16.3
2023-05-10T17:21:36.231Z,16.3
2023-05-10T17:31:36.907Z,16.5
2023-05-10T17:41:37.108Z,16.3
2023-05-10T17:51:37.452Z,16.2
2023-05-10T18:01:37.672Z,16.1
2023-05-10T18:11:38.090Z,16.1
2023-05-10T18:21:38.771Z,16.1
2023-05-10T18:31:39.145Z,16.1
2023-05-10T18:41:39.738Z,15.8
2023-05-10T18:51:40.024Z,15.5
2023-05-10T19:11:42.199Z,15.1
2023-05-10T19:21:42.496Z,15
2023-05-10T19:31:43.326Z,14.9
2023-05-10T19:41:43.620Z,14.7
2023-05-10T19:51:44.272Z,14.7
2023-05-10T20:01:44.650Z,14.6
2023-05-10T20:11:45.585Z,14.5
2023-05-10T20:21:46.511Z,14.4
2023-05-10T20:31:47.065Z,14.4
2023-05-10T20:41:47.496Z,14.3
2023-05-10T20:51:48.382Z,14.3
2023-05-10T21:01:48.781Z,14.3
2023-05-10T21:11:49.643Z,14.2
2023-05-10T21:21:49.779Z,14.1
2023-05-10T21:31:50.162Z,14.1
2023-05-10T21:41:51.171Z,14.1
2023-05-10T21:51:52.190Z,14
2023-05-10T22:01:52.530Z,13.9
2023-05-10T22:21:53.361Z,13.8
2023-05-10T22:31:54.356Z,13.8
2023-05-10T22:41:54.657Z,13.7
2023-05-10T22:51:55.222Z,13.7
2023-05-10T23:01:55.790Z,13.7
2023-05-10T23:11:56.215Z,13.6
2023-05-10T23:21:56.489Z,13.5
2023-05-10T23:31:57.297Z,13.4
2023-05-10T23:41:57.955Z,13.5
